EW3148 Weather Reports


time (UTC)temp
F
wind
direction
speed
knots
gust
knots
rain 1hr
in
rain 24hr
in
rain mn
in
humidity
%
barometer
mb
20220930153241 71 105 2.6 7.8 0.00 0.00 0.00 28 1016.7
20220930152215 70 90 2.6 8.7 0.00 0.00 0.00 29 1016.7
20220930151233 70 93 3.5 8.7 0.00 0.00 0.00 29 1016.7
20220930145048 69 88 2.6 7.0 0.00 0.00 0.00 31 1016.8
20220930140744 66 84 2.6 7.8 0.00 0.00 0.00 36 1016.7
20220930132328 63 98 0.9 3.5 0.00 0.00 0.00 42 1016.6
20220930125020 61 96 0.0 2.6 0.00 0.00 0.00 45 1016.4
20220930124031 60 114 0.0 2.6 0.00 0.00 0.00 45 1016.5
20220930123037 60 111 0.0 0.9 0.00 0.00 0.00 46 1016.4
20220930120917 61 86 0.9 6.1 0.00 0.00 0.00 44 1016.3
20220930113606 62 90 0.9 6.1 0.00 0.00 0.00 44 1016.2
20220930112627 62 96 0.9 6.1 0.00 0.00 0.00 44 1016.1
20220930111636 62 107 0.9 5.2 0.00 0.00 0.00 44 1016.2
20220930105536 63 62 0.9 3.5 0.00 0.00 0.00 45 1016.2
20220930104540 64 95 0.9 4.3 0.00 0.00 0.00 44 1016.1
20220930103516 64 96 0.9 5.2 0.00 0.00 0.00 43 1016.1
20220930102512 64 116 1.7 7.0 0.00 0.00 0.00 43 1016.1
20220930101438 65 86 0.9 7.0 0.00 0.00 0.00 43 1016.1
20220930095346 65 20 0.0 4.3 0.00 0.00 0.00 46 1015.9
20220930093150 65 133 0.0 5.2 0.00 0.00 0.00 48 1015.7
20220930085937 65 100 0.0 2.6 0.00 0.00 0.00 48 1015.7
20220930083805 66 81 0.0 1.7 0.00 0.00 0.00 47 1015.9
20220930081636 66 87 0.0 1.7 0.00 0.00 0.00 46 1015.9
20220930075502 67 80 0.0 0.0 0.00 0.00 0.00 45 1015.9
20220930072224 68 120 0.9 2.6 0.00 0.00 0.00 43 1015.8
20220930071154 68 115 0.9 2.6 0.00 0.00 0.00 43 1015.7
20220930070209 69 143 0.9 2.6 0.00 0.00 0.00 42 1015.7
20220930065217 69 133 0.9 7.0 0.00 0.00 0.00 41 1015.7
20220930064148 69 102 1.7 7.0 0.00 0.00 0.00 41 1015.8
20220930063125 69 84 0.9 5.2 0.00 0.00 0.00 40 1015.8
20220930062144 70 94 0.9 5.2 0.00 0.00 0.00 40 1015.7
20220930055947 70 62 0.9 4.3 0.00 0.00 0.00 38 1015.8
20220930054947 70 107 0.9 4.3 0.00 0.00 0.00 38 1015.8
20220930053952 70 119 0.0 1.7 0.00 0.00 0.00 37 1015.9
20220930052928 71 86 0.0 4.3 0.00 0.00 0.00 37 1015.9
20220930051855 71 80 0.0 4.3 0.00 0.00 0.00 36 1015.9
20220930050836 72 108 0.0 0.9 0.00 0.00 0.00 35 1016.1
20220930045848 72 111 0.0 0.0 0.00 0.00 0.00 34 1016.0
20220930044846 73 89 0.0 3.5 0.00 0.00 0.00 33 1016.1
20220930043845 74 135 0.0 3.5 0.00 0.00 0.00 32 1016.2
20220930042820 74 119 0.9 6.1 0.00 0.00 0.00 31 1016.2
20220930041803 75 142 2.6 7.8 0.00 0.00 0.00 30 1016.2
20220930040749 76 77 2.6 9.6 0.00 0.00 0.00 30 1016.3
20220930035742 76 88 2.6 9.6 0.00 0.00 0.00 30 1016.4
20220930033548 75 63 1.7 5.2 0.00 0.00 0.00 31 1016.4
20220930032554 75 122 0.0 3.5 0.00 0.00 0.00 32 1016.4
20220930031607 75 123 0.0 3.5 0.00 0.00 0.00 31 1016.2
20220930030542 75 111 0.0 1.7 0.00 0.00 0.00 31 1016.0
20220930025606 76 137 0.0 0.9 0.00 0.00 0.00 30 1015.9
20220930024617 76 140 0.0 0.0 0.00 0.00 0.00 30 1015.8
20220930022509 76 158 0.0 0.0 0.00 0.00 0.00 29 1015.7
20220930021439 77 150 0.0 1.7 0.00 0.00 0.00 29 1015.6
20220930020427 77 153 0.0 1.7 0.00 0.00 0.00 28 1015.6
20220930014308 78 163 0.0 0.0 0.00 0.00 0.00 28 1015.5
20220930011055 79 144 0.0 1.7 0.00 0.00 0.00 27 1015.4
20220930010114 80 131 0.0 1.7 0.00 0.00 0.00 26 1015.4
20220930005121 80 149 0.0 0.0 0.00 0.00 0.00 25 1015.3
20220930004138 81 144 0.0 0.9 0.00 0.00 0.00 24 1015.2
20220930003157 82 155 0.0 2.6 0.00 0.00 0.00 23 1015.3
20220930002213 83 105 0.0 2.6 0.00 0.00 0.00 22 1015.2
20220930000040 86 90 0.9 4.3 0.00 0.00 0.00 20 1015.2
20220929235030 87 75 0.0 2.6 0.00 0.00 0.00 19 1015.1
20220929234045 88 136 0.9 2.6 0.00 0.00 0.00 18 1015.0
20220929225630 90 119 0.9 5.2 0.00 0.00 0.00 16 1015.3
20220929223426 90 61 1.7 6.1 0.00 0.00 0.00 15 1015.4
20220929222427 90 24 0.9 4.3 0.00 0.00 0.00 15 1015.6
20220929221422 90 52 0.9 7.8 0.00 0.00 0.00 15 1015.6
20220929214059 91 153 0.9 8.7 0.00 0.00 0.00 14 1015.8
20220929211947 90 110 1.7 6.1 0.00 0.00 0.00 15 1016.1
20220929210923 90 101 1.7 6.1 0.00 0.00 0.00 15 1016.1
20220929205922 89 170 1.7 8.7 0.00 0.00 0.00 16 1016.2
20220929204922 90 39 2.6 8.7 0.00 0.00 0.00 15 1016.3
20220929202801 89 235 1.7 7.8 0.00 0.00 0.00 15 1016.7
20220929201806 90 264 2.6 7.8 0.00 0.00 0.00 14 1016.9
20220929200818 90 313 1.7 7.8 0.00 0.00 0.00 14 1017.1
20220929194707 88 238 2.6 7.8 0.00 0.00 0.00 15 1017.5
20220929193722 89 274 1.7 7.8 0.00 0.00 0.00 15 1017.7
20220929191610 89 296 1.7 7.8 0.00 0.00 0.00 16 1018.1
20220929190540 88 90 1.7 7.0 0.00 0.00 0.00 16 1018.4
20220929185510 88 105 1.7 7.0 0.00 0.00 0.00 17 1018.7
20220929184522 88 84 0.9 7.0 0.00 0.00 0.00 17 1018.9
20220929183536 87 232 0.9 7.0 0.00 0.00 0.00 17 1019.1
20220929181348 87 78 0.9 0.9 0.00 0.00 0.00 18 1019.6
20220929175153 86 58 0.9 6.1 0.00 0.00 0.00 18 1020.0
20220929173020 85 318 0.9 7.0 0.00 0.00 0.00 18 1020.4
20220929172039 84 36 2.6 7.0 0.00 0.00 0.00 20 1020.5
20220929164837 83 46 0.9 4.3 0.00 0.00 0.00 24 1021.0
20220929162633 82 350 0.9 7.0 0.00 0.00 0.00 26 1021.3
20220929161612 81 102 0.9 4.3 0.00 0.00 0.00 27 1021.4
20220929160625 79 286 1.7 7.0 0.00 0.00 0.00 29 1021.5
20220929155645 80 338 1.7 7.0 0.00 0.00 0.00 29 1021.6